Terminal Aerodrome Forecast
Issued by NWS

Home | Current Version | Previous Version | Text Only | Print | Product List | Glossary Off
Versions: 1 2 3 4 5 6 7 8 9 10 11 12 13 14

000
FTUS43 KFGF 281139
TAFBJI
TAF
KBJI 281139Z 2812/2912 16013KT P6SM -RA OVC020
     FM281400 15010KT P6SM VCTS BKN050CB
     FM281800 18013KT P6SM BKN040=

USA.gov is the U.S. government's official web portal to all federal, state and local government web resources and services.